sensor_id;sensor_type;location;lat;lon;timestamp;pressure;altitude;pressure_sealevel;temperature;humidity
76586;BME280;65251;51.022;13.736;2023-08-31T00:00:08;98484.59;;;16.00;71.30
76586;BME280;65251;51.022;13.736;2023-08-31T00:00:40;98487.25;;;15.95;70.57
76586;BME280;65251;51.022;13.736;2023-08-31T00:01:12;98487.25;;;15.95;71.60
76586;BME280;65251;51.022;13.736;2023-08-31T00:01:44;98492.94;;;15.98;70.58
76586;BME280;65251;51.022;13.736;2023-08-31T00:02:15;98495.06;;;15.96;70.76
76586;BME280;65251;51.022;13.736;2023-08-31T00:02:45;98491.81;;;15.94;72.60
76586;BME280;65251;51.022;13.736;2023-08-31T00:03:17;98486.44;;;15.94;71.04
76586;BME280;65251;51.022;13.736;2023-08-31T00:03:48;98491.56;;;15.96;71.27
76586;BME280;65251;51.022;13.736;2023-08-31T00:04:19;98495.31;;;15.95;71.75
76586;BME280;65251;51.022;13.736;2023-08-31T00:04:51;98492.63;;;15.95;71.24
76586;BME280;65251;51.022;13.736;2023-08-31T00:05:23;98491.81;;;15.94;71.91
76586;BME280;65251;51.022;13.736;2023-08-31T00:05:55;98484.31;;;15.96;70.77
76586;BME280;65251;51.022;13.736;2023-08-31T00:06:26;98492.38;;;15.96;72.32
76586;BME280;65251;51.022;13.736;2023-08-31T00:06:57;98502.88;;;15.98;71.08
76586;BME280;65251;51.022;13.736;2023-08-31T00:07:28;98501.25;;;15.97;71.44
76586;BME280;65251;51.022;13.736;2023-08-31T00:07:59;98498.03;;;16.00;71.39
76586;BME280;65251;51.022;13.736;2023-08-31T00:08:30;98495.34;;;16.00;70.88
76586;BME280;65251;51.022;13.736;2023-08-31T00:09:00;98499.38;;;16.02;72.15
76586;BME280;65251;51.022;13.736;2023-08-31T00:09:32;98500.19;;;16.03;71.87
76586;BME280;65251;51.022;13.736;2023-08-31T00:10:05;98496.19;;;16.05;70.38
76586;BME280;65251;51.022;13.736;2023-08-31T00:10:39;98499.94;;;16.04;70.14
76586;BME280;65251;51.022;13.736;2023-08-31T00:11:10;98499.13;;;16.04;71.33
76586;BME280;65251;51.022;13.736;2023-08-31T00:11:41;98502.63;;;16.04;70.84
76586;BME280;65251;51.022;13.736;2023-08-31T00:12:12;98511.50;;;16.05;70.12
76586;BME280;65251;51.022;13.736;2023-08-31T00:12:43;98510.44;;;16.06;71.73
76586;BME280;65251;51.022;13.736;2023-08-31T00:13:14;98506.69;;;16.07;71.55
76586;BME280;65251;51.022;13.736;2023-08-31T00:13:44;98509.09;;;16.08;69.67
76586;BME280;65251;51.022;13.736;2023-08-31T00:14:16;98515.28;;;16.09;71.07
76586;BME280;65251;51.022;13.736;2023-08-31T00:14:49;98516.09;;;16.09;69.92
76586;BME280;65251;51.022;13.736;2023-08-31T00:15:20;98512.34;;;16.10;69.96
76586;BME280;65251;51.022;13.736;2023-08-31T00:15:51;98503.22;;;16.11;69.50
76586;BME280;65251;51.022;13.736;2023-08-31T00:16:24;98505.06;;;16.06;71.60
76586;BME280;65251;51.022;13.736;2023-08-31T00:16:56;98511.25;;;16.06;72.48
76586;BME280;65251;51.022;13.736;2023-08-31T00:17:29;98519.31;;;16.06;72.00
76586;BME280;65251;51.022;13.736;2023-08-31T00:18:00;98521.72;;;16.08;70.47
76586;BME280;65251;51.022;13.736;2023-08-31T00:18:30;98514.19;;;16.05;72.77
76586;BME280;65251;51.022;13.736;2023-08-31T00:19:03;98516.88;;;16.05;71.51
76586;BME280;65251;51.022;13.736;2023-08-31T00:19:34;98522.25;;;16.05;72.80
76586;BME280;65251;51.022;13.736;2023-08-31T00:20:07;98523.31;;;16.04;71.25
76586;BME280;65251;51.022;13.736;2023-08-31T00:20:42;98522.78;;;16.07;71.86
76586;BME280;65251;51.022;13.736;2023-08-31T00:21:13;98519.31;;;16.06;70.91
76586;BME280;65251;51.022;13.736;2023-08-31T00:21:43;98524.69;;;16.06;71.35
76586;BME280;65251;51.022;13.736;2023-08-31T00:22:15;98520.13;;;16.07;70.43
76586;BME280;65251;51.022;13.736;2023-08-31T00:22:46;98525.22;;;16.08;69.52
76586;BME280;65251;51.022;13.736;2023-08-31T00:23:17;98527.97;;;16.13;69.88
76586;BME280;65251;51.022;13.736;2023-08-31T00:23:49;98526.91;;;16.14;70.24
76586;BME280;65251;51.022;13.736;2023-08-31T00:24:21;98533.38;;;16.18;70.50
76586;BME280;65251;51.022;13.736;2023-08-31T00:24:53;98531.22;;;16.20;69.64
76586;BME280;65251;51.022;13.736;2023-08-31T00:25:23;98538.75;;;16.24;69.37
76586;BME280;65251;51.022;13.736;2023-08-31T00:25:54;98534.50;;;16.28;67.67
76586;BME280;65251;51.022;13.736;2023-08-31T00:26:27;98533.16;;;16.30;67.02
76586;BME280;65251;51.022;13.736;2023-08-31T00:26:59;98539.66;;;16.34;67.66
76586;BME280;65251;51.022;13.736;2023-08-31T00:27:30;98538.59;;;16.35;67.19
76586;BME280;65251;51.022;13.736;2023-08-31T00:28:01;98542.34;;;16.39;67.84
76586;BME280;65251;51.022;13.736;2023-08-31T00:28:35;98542.34;;;16.39;68.77
76586;BME280;65251;51.022;13.736;2023-08-31T00:29:07;98535.38;;;16.38;69.34
76586;BME280;65251;51.022;13.736;2023-08-31T00:29:39;98542.63;;;16.38;67.60
76586;BME280;65251;51.022;13.736;2023-08-31T00:30:13;98542.91;;;16.41;68.51
76586;BME280;65251;51.022;13.736;2023-08-31T00:30:44;98544.53;;;16.42;67.59
76586;BME280;65251;51.022;13.736;2023-08-31T00:31:16;98538.88;;;16.44;67.42
76586;BME280;65251;51.022;13.736;2023-08-31T00:31:47;98551.25;;;16.45;68.48
76586;BME280;65251;51.022;13.736;2023-08-31T00:32:18;98536.75;;;16.46;68.61
76586;BME280;65251;51.022;13.736;2023-08-31T00:32:50;98540.00;;;16.48;66.75
76586;BME280;65251;51.022;13.736;2023-08-31T00:33:25;98542.41;;;16.49;66.76
76586;BME280;65251;51.022;13.736;2023-08-31T00:33:56;98544.28;;;16.49;68.45
76586;BME280;65251;51.022;13.736;2023-08-31T00:34:27;98547.53;;;16.51;67.99
76586;BME280;65251;51.022;13.736;2023-08-31T00:34:58;98546.47;;;16.52;66.87
76586;BME280;65251;51.022;13.736;2023-08-31T00:35:29;98544.59;;;16.52;68.85
76586;BME280;65251;51.022;13.736;2023-08-31T00:36:00;98540.03;;;16.53;67.37
76586;BME280;65251;51.022;13.736;2023-08-31T00:36:31;98544.59;;;16.52;68.38
76586;BME280;65251;51.022;13.736;2023-08-31T00:37:04;98544.59;;;16.52;69.03
76586;BME280;65251;51.022;13.736;2023-08-31T00:37:34;98548.91;;;16.53;68.93
76586;BME280;65251;51.022;13.736;2023-08-31T00:38:05;98544.34;;;16.54;67.39
76586;BME280;65251;51.022;13.736;2023-08-31T00:38:36;98547.28;;;16.52;68.83
76586;BME280;65251;51.022;13.736;2023-08-31T00:39:08;98547.03;;;16.54;67.70
76586;BME280;65251;51.022;13.736;2023-08-31T00:39:41;98544.84;;;16.51;68.16
76586;BME280;65251;51.022;13.736;2023-08-31T00:40:11;98544.84;;;16.51;67.21
76586;BME280;65251;51.022;13.736;2023-08-31T00:40:44;98548.59;;;16.50;68.58
76586;BME280;65251;51.022;13.736;2023-08-31T00:41:16;98549.41;;;16.50;67.46
76586;BME280;65251;51.022;13.736;2023-08-31T00:41:47;98545.09;;;16.49;68.16
76586;BME280;65251;51.022;13.736;2023-08-31T00:42:17;98544.28;;;16.49;67.56
76586;BME280;65251;51.022;13.736;2023-08-31T00:42:48;98558.00;;;16.47;67.63
76586;BME280;65251;51.022;13.736;2023-08-31T00:43:20;98548.06;;;16.48;68.21
76586;BME280;65251;51.022;13.736;2023-08-31T00:43:51;98553.44;;;16.48;67.63
76586;BME280;65251;51.022;13.736;2023-08-31T00:44:21;98550.19;;;16.46;67.90
76586;BME280;65251;51.022;13.736;2023-08-31T00:44:52;98545.63;;;16.46;68.92
76586;BME280;65251;51.022;13.736;2023-08-31T00:45:25;98550.19;;;16.46;68.72
76586;BME280;65251;51.022;13.736;2023-08-31T00:45:57;98545.88;;;16.45;67.70
76586;BME280;65251;51.022;13.736;2023-08-31T00:46:28;98552.88;;;16.46;69.31
76586;BME280;65251;51.022;13.736;2023-08-31T00:47:00;98550.44;;;16.44;68.77
76586;BME280;65251;51.022;13.736;2023-08-31T00:47:32;98550.72;;;16.43;67.78
76586;BME280;65251;51.022;13.736;2023-08-31T00:48:04;98548.56;;;16.45;68.88
76586;BME280;65251;51.022;13.736;2023-08-31T00:48:36;98554.75;;;16.45;68.98
76586;BME280;65251;51.022;13.736;2023-08-31T00:49:07;98552.31;;;16.44;67.66
76586;BME280;65251;51.022;13.736;2023-08-31T00:49:39;98550.97;;;16.41;68.37
76586;BME280;65251;51.022;13.736;2023-08-31T00:50:10;98543.72;;;16.42;68.53
76586;BME280;65251;51.022;13.736;2023-08-31T00:50:42;98550.69;;;16.38;68.21
76586;BME280;65251;51.022;13.736;2023-08-31T00:51:13;98535.91;;;16.35;67.84
76586;BME280;65251;51.022;13.736;2023-08-31T00:51:45;98549.59;;;16.34;69.08
76586;BME280;65251;51.022;13.736;2023-08-31T00:52:19;98551.72;;;16.32;69.04
76586;BME280;65251;51.022;13.736;2023-08-31T00:52:52;98543.91;;;16.30;68.21
76586;BME280;65251;51.022;13.736;2023-08-31T00:53:23;98547.69;;;16.29;68.07
76586;BME280;65251;51.022;13.736;2023-08-31T00:53:54;98548.19;;;16.26;67.92
76586;BME280;65251;51.022;13.736;2023-08-31T00:54:25;98546.81;;;16.24;67.75
76586;BME280;65251;51.022;13.736;2023-08-31T00:54:58;98543.03;;;16.19;68.76
76586;BME280;65251;51.022;13.736;2023-08-31T00:55:29;98545.44;;;16.16;68.08
76586;BME280;65251;51.022;13.736;2023-08-31T00:56:00;98551.09;;;16.14;69.82
76586;BME280;65251;51.022;13.736;2023-08-31T00:56:31;98548.66;;;16.13;70.17
76586;BME280;65251;51.022;13.736;2023-08-31T00:57:03;98554.53;;;16.10;68.74
76586;BME280;65251;51.022;13.736;2023-08-31T00:57:35;98546.44;;;16.05;69.48
76586;BME280;65251;51.022;13.736;2023-08-31T00:58:06;98544.25;;;16.02;68.24
76586;BME280;65251;51.022;13.736;2023-08-31T00:58:37;98547.19;;;16.00;70.09
76586;BME280;65251;51.022;13.736;2023-08-31T00:59:07;98540.50;;;15.98;68.17
76586;BME280;65251;51.022;13.736;2023-08-31T00:59:38;98546.94;;;15.97;69.52
76586;BME280;65251;51.022;13.736;2023-08-31T01:00:11;98545.00;;;15.92;68.52
76586;BME280;65251;51.022;13.736;2023-08-31T01:00:52;98544.44;;;15.90;69.87
76586;BME280;65251;51.022;13.736;2023-08-31T01:01:30;98540.13;;;15.89;69.24
76586;BME280;65251;51.022;13.736;2023-08-31T01:02:16;98541.47;;;15.87;70.18
76586;BME280;65251;51.022;13.736;2023-08-31T01:02:59;98544.91;;;15.82;69.21
76586;BME280;65251;51.022;13.736;2023-08-31T01:03:43;98545.41;;;15.79;68.83
76586;BME280;65251;51.022;13.736;2023-08-31T01:04:24;98551.34;;;15.81;68.57
76586;BME280;65251;51.022;13.736;2023-08-31T01:05:04;98554.03;;;15.81;68.34
76586;BME280;65251;51.022;13.736;2023-08-31T01:05:54;98553.47;;;15.79;68.66
76586;BME280;65251;51.022;13.736;2023-08-31T01:06:40;98548.09;;;15.79;69.01
76586;BME280;65251;51.022;13.736;2023-08-31T01:07:24;98555.88;;;15.75;69.32
76586;BME280;65251;51.022;13.736;2023-08-31T01:08:13;98542.41;;;15.70;69.78
76586;BME280;65251;51.022;13.736;2023-08-31T01:08:53;98556.41;;;15.72;68.80
76586;BME280;65251;51.022;13.736;2023-08-31T01:09:34;98551.28;;;15.71;68.74
76586;BME280;65251;51.022;13.736;2023-08-31T01:10:14;98550.97;;;15.67;70.07
76586;BME280;65251;51.022;13.736;2023-08-31T01:10:59;98550.66;;;15.64;69.29
76586;BME280;65251;51.022;13.736;2023-08-31T01:11:40;98551.72;;;15.63;68.99
76586;BME280;65251;51.022;13.736;2023-08-31T01:12:22;98548.47;;;15.61;69.86
76586;BME280;65251;51.022;13.736;2023-08-31T01:13:03;98549.53;;;15.60;70.00
76586;BME280;65251;51.022;13.736;2023-08-31T01:13:44;98546.81;;;15.55;69.33
76586;BME280;65251;51.022;13.736;2023-08-31T01:14:17;98547.06;;;15.53;69.68
76586;BME280;65251;51.022;13.736;2023-08-31T01:14:56;98547.56;;;15.50;70.44
76586;BME280;65251;51.022;13.736;2023-08-31T01:15:31;98541.63;;;15.48;69.42
76586;BME280;65251;51.022;13.736;2023-08-31T01:16:07;98545.88;;;15.44;70.58
76586;BME280;65251;51.022;13.736;2023-08-31T01:16:42;98537.28;;;15.42;70.41
76586;BME280;65251;51.022;13.736;2023-08-31T01:17:16;98546.38;;;15.41;69.40
76586;BME280;65251;51.022;13.736;2023-08-31T01:17:52;98535.09;;;15.39;69.25
76586;BME280;65251;51.022;13.736;2023-08-31T01:18:27;98536.44;;;15.36;70.02
76586;BME280;65251;51.022;13.736;2023-08-31T01:19:03;98534.50;;;15.32;70.32
76586;BME280;65251;51.022;13.736;2023-08-31T01:19:45;98537.19;;;15.32;70.91
76586;BME280;65251;51.022;13.736;2023-08-31T01:20:27;98537.44;;;15.30;70.17
76586;BME280;65251;51.022;13.736;2023-08-31T01:21:06;98534.19;;;15.28;70.20
76586;BME280;65251;51.022;13.736;2023-08-31T01:21:42;98531.44;;;15.23;71.03
76586;BME280;65251;51.022;13.736;2023-08-31T01:22:25;98536.00;;;15.23;70.19
76586;BME280;65251;51.022;13.736;2023-08-31T01:23:02;98536.81;;;15.23;70.15
76586;BME280;65251;51.022;13.736;2023-08-31T01:23:49;98528.75;;;15.23;71.26
76586;BME280;65251;51.022;13.736;2023-08-31T01:24:23;98530.06;;;15.21;71.33
76586;BME280;65251;51.022;13.736;2023-08-31T01:24:54;98526.06;;;15.23;71.51
76586;BME280;65251;51.022;13.736;2023-08-31T01:25:26;98527.94;;;15.23;71.33
76586;BME280;65251;51.022;13.736;2023-08-31T01:25:58;98526.06;;;15.23;70.35
76586;BME280;65251;51.022;13.736;2023-08-31T01:26:30;98531.69;;;15.22;71.35
76586;BME280;65251;51.022;13.736;2023-08-31T01:27:01;98526.88;;;15.24;70.77
76586;BME280;65251;51.022;13.736;2023-08-31T01:27:32;98522.34;;;15.24;70.76
76586;BME280;65251;51.022;13.736;2023-08-31T01:28:03;98526.06;;;15.23;71.33
76586;BME280;65251;51.022;13.736;2023-08-31T01:28:35;98530.38;;;15.24;71.34
76586;BME280;65251;51.022;13.736;2023-08-31T01:29:06;98520.97;;;15.22;71.13
76586;BME280;65251;51.022;13.736;2023-08-31T01:29:37;98525.03;;;15.24;71.53
76586;BME280;65251;51.022;13.736;2023-08-31T01:30:08;98522.34;;;15.24;70.60
76586;BME280;65251;51.022;13.736;2023-08-31T01:30:40;98528.50;;;15.25;70.62
76586;BME280;65251;51.022;13.736;2023-08-31T01:31:11;98530.63;;;15.23;71.13
76586;BME280;65251;51.022;13.736;2023-08-31T01:31:42;98518.53;;;15.20;71.97
76586;BME280;65251;51.022;13.736;2023-08-31T01:32:13;98524.78;;;15.26;71.51
76586;BME280;65251;51.022;13.736;2023-08-31T01:32:44;98527.44;;;15.26;71.00
76586;BME280;65251;51.022;13.736;2023-08-31T01:33:16;98521.84;;;15.27;71.02
76586;BME280;65251;51.022;13.736;2023-08-31T01:33:48;98520.00;;;15.33;71.09
76586;BME280;65251;51.022;13.736;2023-08-31T01:34:19;98524.81;;;15.31;70.65
76586;BME280;65251;51.022;13.736;2023-08-31T01:34:50;98521.09;;;15.32;71.20
76586;BME280;65251;51.022;13.736;2023-08-31T01:35:23;98526.69;;;15.30;70.60
76586;BME280;65251;51.022;13.736;2023-08-31T01:35:59;98524.81;;;15.31;70.65
76586;BME280;65251;51.022;13.736;2023-08-31T01:36:38;98530.19;;;15.31;72.07
76586;BME280;65251;51.022;13.736;2023-08-31T01:37:19;98527.25;;;15.32;71.95
76586;BME280;65251;51.022;13.736;2023-08-31T01:37:55;98525.38;;;15.33;71.00
76586;BME280;65251;51.022;13.736;2023-08-31T01:38:31;98533.19;;;15.34;71.62
76586;BME280;65251;51.022;13.736;2023-08-31T01:39:14;98525.69;;;15.36;70.83
76586;BME280;65251;51.022;13.736;2023-08-31T01:39:52;98535.38;;;15.37;71.01
76586;BME280;65251;51.022;13.736;2023-08-31T01:40:31;98537.53;;;15.40;70.82
76586;BME280;65251;51.022;13.736;2023-08-31T01:41:07;98539.69;;;15.43;70.73
76586;BME280;65251;51.022;13.736;2023-08-31T01:41:53;98542.38;;;15.43;71.57
76586;BME280;65251;51.022;13.736;2023-08-31T01:42:27;98532.47;;;15.44;71.36
76586;BME280;65251;51.022;13.736;2023-08-31T01:43:01;98544.56;;;15.46;70.56
76586;BME280;65251;51.022;13.736;2023-08-31T01:43:33;98541.38;;;15.49;71.50
76586;BME280;65251;51.022;13.736;2023-08-31T01:44:09;98539.75;;;15.48;70.39
76586;BME280;65251;51.022;13.736;2023-08-31T01:44:46;98529.81;;;15.49;71.61
76586;BME280;65251;51.022;13.736;2023-08-31T01:45:21;98537.88;;;15.49;71.29
76586;BME280;65251;51.022;13.736;2023-08-31T01:45:54;98538.69;;;15.49;70.65
76586;BME280;65251;51.022;13.736;2023-08-31T01:46:26;98536.00;;;15.49;71.56
76586;BME280;65251;51.022;13.736;2023-08-31T01:47:02;98532.25;;;15.50;70.18
76586;BME280;65251;51.022;13.736;2023-08-31T01:47:33;98544.38;;;15.53;71.69
76586;BME280;65251;51.022;13.736;2023-08-31T01:48:05;98532.00;;;15.52;70.70
76586;BME280;65251;51.022;13.736;2023-08-31T01:48:39;98534.69;;;15.52;71.70
76586;BME280;65251;51.022;13.736;2023-08-31T01:49:10;98531.75;;;15.54;70.84
76586;BME280;65251;51.022;13.736;2023-08-31T01:49:43;98535.25;;;15.54;70.49
76586;BME280;65251;51.022;13.736;2023-08-31T01:50:14;98531.50;;;15.55;71.12
76586;BME280;65251;51.022;13.736;2023-08-31T01:50:44;98538.53;;;15.56;71.44
76586;BME280;65251;51.022;13.736;2023-08-31T01:51:16;98530.22;;;15.58;71.10
76586;BME280;65251;51.022;13.736;2023-08-31T01:51:47;98536.13;;;15.60;70.46
76586;BME280;65251;51.022;13.736;2023-08-31T01:52:18;98535.63;;;15.63;70.69
76586;BME280;65251;51.022;13.736;2023-08-31T01:52:49;98534.28;;;15.65;69.32
76586;BME280;65251;51.022;13.736;2023-08-31T01:53:21;98535.91;;;15.66;69.90
76586;BME280;65251;51.022;13.736;2023-08-31T01:53:53;98542.66;;;15.69;71.01
76586;BME280;65251;51.022;13.736;2023-08-31T01:54:25;98532.47;;;15.71;70.86
76586;BME280;65251;51.022;13.736;2023-08-31T01:54:56;98535.41;;;15.69;69.86
76586;BME280;65251;51.022;13.736;2023-08-31T01:55:28;98547.53;;;15.72;71.05
76586;BME280;65251;51.022;13.736;2023-08-31T01:55:58;98548.34;;;15.72;71.20
76586;BME280;65251;51.022;13.736;2023-08-31T01:56:29;98548.88;;;15.74;71.03
76586;BME280;65251;51.022;13.736;2023-08-31T01:57:00;98541.09;;;15.73;71.43
76586;BME280;65251;51.022;13.736;2023-08-31T01:57:33;98542.72;;;15.74;70.62
76586;BME280;65251;51.022;13.736;2023-08-31T01:58:04;98547.81;;;15.75;70.11
76586;BME280;65251;51.022;13.736;2023-08-31T01:58:34;98540.84;;;15.74;70.38
76586;BME280;65251;51.022;13.736;2023-08-31T01:59:05;98548.63;;;15.76;70.18
76586;BME280;65251;51.022;13.736;2023-08-31T01:59:37;98549.44;;;15.76;71.25
76586;BME280;65251;51.022;13.736;2023-08-31T02:00:09;98550.25;;;15.77;71.63
76586;BME280;65251;51.022;13.736;2023-08-31T02:00:40;98546.50;;;15.78;71.93
76586;BME280;65251;51.022;13.736;2023-08-31T02:01:11;98544.63;;;15.78;69.99
76586;BME280;65251;51.022;13.736;2023-08-31T02:01:42;98548.09;;;15.79;70.28
76586;BME280;65251;51.022;13.736;2023-08-31T02:02:13;98537.91;;;15.81;70.76
76586;BME280;65251;51.022;13.736;2023-08-31T02:02:44;98544.34;;;15.80;69.33
76586;BME280;65251;51.022;13.736;2023-08-31T02:03:15;98552.41;;;15.80;70.76
76586;BME280;65251;51.022;13.736;2023-08-31T02:03:47;98553.22;;;15.80;70.36
76586;BME280;65251;51.022;13.736;2023-08-31T02:04:17;98547.03;;;15.80;69.01
76586;BME280;65251;51.022;13.736;2023-08-31T02:04:48;98549.47;;;15.81;69.13
76586;BME280;65251;51.022;13.736;2023-08-31T02:05:20;98543.28;;;15.81;70.07
76586;BME280;65251;51.022;13.736;2023-08-31T02:05:52;98550.53;;;15.80;69.65
76586;BME280;65251;51.022;13.736;2023-08-31T02:06:23;98547.03;;;15.80;70.82
76586;BME280;65251;51.022;13.736;2023-08-31T02:06:54;98550.53;;;15.80;71.15
76586;BME280;65251;51.022;13.736;2023-08-31T02:07:25;98552.97;;;15.82;70.88
76586;BME280;65251;51.022;13.736;2023-08-31T02:07:56;98546.78;;;15.81;69.39
76586;BME280;65251;51.022;13.736;2023-08-31T02:08:27;98544.09;;;15.81;70.19
76586;BME280;65251;51.022;13.736;2023-08-31T02:08:58;98552.69;;;15.78;70.18
76586;BME280;65251;51.022;13.736;2023-08-31T02:09:31;98551.88;;;15.78;70.80
76586;BME280;65251;51.022;13.736;2023-08-31T02:10:02;98555.63;;;15.77;70.49
76586;BME280;65251;51.022;13.736;2023-08-31T02:10:32;98547.31;;;15.78;70.79
76586;BME280;65251;51.022;13.736;2023-08-31T02:11:04;98552.69;;;15.78;69.72
76586;BME280;65251;51.022;13.736;2023-08-31T02:11:35;98552.94;;;15.77;71.15
76586;BME280;65251;51.022;13.736;2023-08-31T02:12:08;98551.31;;;15.76;71.06
76586;BME280;65251;51.022;13.736;2023-08-31T02:12:39;98552.13;;;15.76;69.78
76586;BME280;65251;51.022;13.736;2023-08-31T02:13:13;98551.06;;;15.77;69.78
76586;BME280;65251;51.022;13.736;2023-08-31T02:13:44;98547.81;;;15.75;69.82
76586;BME280;65251;51.022;13.736;2023-08-31T02:14:15;98540.28;;;15.72;70.74
76586;BME280;65251;51.022;13.736;2023-08-31T02:14:45;98545.13;;;15.75;69.99
76586;BME280;65251;51.022;13.736;2023-08-31T02:15:17;98547.00;;;15.75;69.97
76586;BME280;65251;51.022;13.736;2023-08-31T02:15:51;98551.31;;;15.76;69.91
76586;BME280;65251;51.022;13.736;2023-08-31T02:16:22;98545.13;;;15.75;70.41
76586;BME280;65251;51.022;13.736;2023-08-31T02:16:52;98550.25;;;15.77;69.72
76586;BME280;65251;51.022;13.736;2023-08-31T02:17:24;98555.63;;;15.77;69.34
76586;BME280;65251;51.022;13.736;2023-08-31T02:17:55;98548.88;;;15.74;69.41
76586;BME280;65251;51.022;13.736;2023-08-31T02:18:26;98544.84;;;15.72;71.01
76586;BME280;65251;51.022;13.736;2023-08-31T02:18:58;98549.41;;;15.71;69.98
76586;BME280;65251;51.022;13.736;2023-08-31T02:19:29;98552.34;;;15.70;70.60
76586;BME280;65251;51.022;13.736;2023-08-31T02:20:00;98555.28;;;15.68;69.80
76586;BME280;65251;51.022;13.736;2023-08-31T02:20:34;98561.16;;;15.65;71.54
76586;BME280;65251;51.022;13.736;2023-08-31T02:21:05;98561.41;;;15.64;71.70
76586;BME280;65251;51.022;13.736;2023-08-31T02:21:37;98563.03;;;15.65;71.78
76586;BME280;65251;51.022;13.736;2023-08-31T02:22:08;98562.22;;;15.64;71.63
76586;BME280;65251;51.022;13.736;2023-08-31T02:22:40;98565.72;;;15.65;71.00
76586;BME280;65251;51.022;13.736;2023-08-31T02:23:11;98569.22;;;15.65;71.79
76586;BME280;65251;51.022;13.736;2023-08-31T02:23:42;98558.72;;;15.64;71.28
76586;BME280;65251;51.022;13.736;2023-08-31T02:24:13;98570.28;;;15.64;71.33
76586;BME280;65251;51.022;13.736;2023-08-31T02:24:45;98572.16;;;15.64;72.27
76586;BME280;65251;51.022;13.736;2023-08-31T02:25:17;98563.28;;;15.63;71.71
76586;BME280;65251;51.022;13.736;2023-08-31T02:25:47;98570.28;;;15.64;72.38
76586;BME280;65251;51.022;13.736;2023-08-31T02:26:18;98565.97;;;15.63;72.76
76586;BME280;65251;51.022;13.736;2023-08-31T02:26:49;98568.41;;;15.65;72.38
76586;BME280;65251;51.022;13.736;2023-08-31T02:27:20;98562.47;;;15.63;72.76
76586;BME280;65251;51.022;13.736;2023-08-31T02:27:51;98566.78;;;15.64;72.91
76586;BME280;65251;51.022;13.736;2023-08-31T02:28:22;98567.03;;;15.62;72.49
76586;BME280;65251;51.022;13.736;2023-08-31T02:28:53;98562.72;;;15.61;73.75
76586;BME280;65251;51.022;13.736;2023-08-31T02:29:24;98568.91;;;15.62;72.64
76586;BME280;65251;51.022;13.736;2023-08-31T02:29:55;98571.59;;;15.62;72.25
76586;BME280;65251;51.022;13.736;2023-08-31T02:30:26;98565.41;;;15.61;72.68
76586;BME280;65251;51.022;13.736;2023-08-31T02:30:59;98567.28;;;15.61;72.31
76586;BME280;65251;51.022;13.736;2023-08-31T02:31:30;98572.66;;;15.61;71.94
76586;BME280;65251;51.022;13.736;2023-08-31T02:32:03;98570.22;;;15.59;72.65
76586;BME280;65251;51.022;13.736;2023-08-31T02:32:34;98571.84;;;15.60;71.56
76586;BME280;65251;51.022;13.736;2023-08-31T02:33:06;98568.34;;;15.60;71.76
76586;BME280;65251;51.022;13.736;2023-08-31T02:33:37;98576.97;;;15.62;72.01
76586;BME280;65251;51.022;13.736;2023-08-31T02:34:07;98576.97;;;15.62;72.47
76586;BME280;65251;51.022;13.736;2023-08-31T02:34:39;98578.84;;;15.61;74.16
76586;BME280;65251;51.022;13.736;2023-08-31T02:35:10;98574.28;;;15.62;74.13
76586;BME280;65251;51.022;13.736;2023-08-31T02:35:42;98574.28;;;15.62;74.28
76586;BME280;65251;51.022;13.736;2023-08-31T02:36:13;98579.66;;;15.62;72.99
76586;BME280;65251;51.022;13.736;2023-08-31T02:36:45;98575.34;;;15.61;72.41
76586;BME280;65251;51.022;13.736;2023-08-31T02:37:16;98582.59;;;15.60;73.98
76586;BME280;65251;51.022;13.736;2023-08-31T02:37:47;98582.31;;;15.62;72.48
76586;BME280;65251;51.022;13.736;2023-08-31T02:38:17;98576.97;;;15.62;73.01
76586;BME280;65251;51.022;13.736;2023-08-31T02:38:49;98585.81;;;15.62;73.14
76586;BME280;65251;51.022;13.736;2023-08-31T02:39:20;98587.44;;;15.63;73.02
76586;BME280;65251;51.022;13.736;2023-08-31T02:39:53;98592.56;;;15.65;72.17
76586;BME280;65251;51.022;13.736;2023-08-31T02:40:23;98589.63;;;15.66;72.60
76586;BME280;65251;51.022;13.736;2023-08-31T02:40:55;98586.69;;;15.68;71.84
76586;BME280;65251;51.022;13.736;2023-08-31T02:41:26;98586.69;;;15.68;71.99
76586;BME280;65251;51.022;13.736;2023-08-31T02:41:56;98589.38;;;15.68;71.71
76586;BME280;65251;51.022;13.736;2023-08-31T02:42:27;98590.19;;;15.68;72.89
76586;BME280;65251;51.022;13.736;2023-08-31T02:42:58;98596.63;;;15.67;73.08
76586;BME280;65251;51.022;13.736;2023-08-31T02:43:30;98595.56;;;15.68;72.36
76586;BME280;65251;51.022;13.736;2023-08-31T02:44:00;98593.94;;;15.67;72.76
76586;BME280;65251;51.022;13.736;2023-08-31T02:44:31;98592.31;;;15.66;71.63
76586;BME280;65251;51.022;13.736;2023-08-31T02:45:02;98592.56;;;15.65;72.70
76586;BME280;65251;51.022;13.736;2023-08-31T02:45:34;98596.06;;;15.65;71.97
76586;BME280;65251;51.022;13.736;2023-08-31T02:46:05;98595.25;;;15.65;73.58
76586;BME280;65251;51.022;13.736;2023-08-31T02:46:35;98599.56;;;15.66;72.26
76586;BME280;65251;51.022;13.736;2023-08-31T02:47:06;98600.63;;;15.65;72.12
76586;BME280;65251;51.022;13.736;2023-08-31T02:47:38;98602.25;;;15.66;72.28
76586;BME280;65251;51.022;13.736;2023-08-31T02:48:09;98605.19;;;15.64;73.03
76586;BME280;65251;51.022;13.736;2023-08-31T02:48:40;98599.56;;;15.66;72.07
76586;BME280;65251;51.022;13.736;2023-08-31T02:49:11;98607.88;;;15.64;72.89
76586;BME280;65251;51.022;13.736;2023-08-31T02:49:42;98601.69;;;15.64;72.83
76586;BME280;65251;51.022;13.736;2023-08-31T02:50:13;98600.63;;;15.65;72.89
76586;BME280;65251;51.022;13.736;2023-08-31T02:50:44;98603.31;;;15.65;73.65
76586;BME280;65251;51.022;13.736;2023-08-31T02:51:15;98598.44;;;15.62;73.56